Bodensee (Kressbronn): 7,2°C  -  Teich der Wetterzentrale Bad Schussenried: 5,0°C |  Schneehöhe Kreuzthal-Steinberg (930 m ü. NN): 4 cm   
10.12.2019Höhe
ü. NN
ZeitTemperatur (°C)Nieder-
schlag
Luft-
feuchte
Luft-
druck
Wind
StationaktuellMinimumMaximumaktuellMaximum
Aldingen654 m21:06-2,2-2,2 (21:02)3,2 (13:58)1,2 l/m²91%1025,41,9 km/h (1 Bft) S31,5 km/h (5 Bft) N-NW (02:42)
Allmannsweiler625 m21:05-3,0-3,1 (21:00)3,1 (13:35)0,0 l/m²93%1024,50,0 km/h (0 Bft) W33,8 km/h (5 Bft) N (01:55)
Allmendingen541 m21:05-3,1-3,1 (21:05)4,3 (15:25)1,4 l/m²90%1024,80,0 km/h (0 Bft) SO20,9 km/h (4 Bft) W-NW (02:40)
Altshausen574 m21:05-3,2-3,2 (20:54)4,7 (12:51)0,0 l/m²83%1023,20,0 km/h (0 Bft) S-SO30,6 km/h (5 Bft) NW (03:08)
Amstetten-Reutti663 m21:05-3,5-3,5 (21:05)3,2 (22:00)3,0 l/m²92%1024,83,2 km/h (1 Bft) SO54,7 km/h (7 Bft) W-NW (00:55)
Amtzell-Grenis677 m21:05-2,1-2,1 (20:55)3,7 (06:35)2,0 l/m²75%1026,14,8 km/h (1 Bft) O-SO40,2 km/h (6 Bft) W-NW (02:15)
Aulendorf570 m21:05-2,2-2,3 (21:04)4,2 (13:34)1,2 l/m²86%1024,20,0 km/h (0 Bft) N-NW25,7 km/h (4 Bft) NW (02:38)
Bad Krozingen233 m21:06-0,3-0,3 (21:06)7,0 (15:15)0,0 l/m²88%1025,51,6 km/h (1 Bft) S-SW21,4 km/h (4 Bft) N (02:55)
Bad Saulgau595 m21:05-3,1-3,1 (21:05)4,8 (11:40)0,0 l/m²89%1023,60,0 km/h (0 Bft) W33,8 km/h (5 Bft) SO (02:55)
Bad Saulgau-Lampertsweiler627 m21:05-2,7-2,8 (20:45)3,3 (12:15)0,0 l/m²87%1027,00,0 km/h (0 Bft) S32,2 km/h (5 Bft) NW (02:55)
Bad Schussenried572 m21:05-2,7-2,7 (20:50)4,8 (12:40)0,2 l/m²93%1023,20,0 km/h (0 Bft) W27,4 km/h (4 Bft) N-NW (01:50)
Bergatreute615 m21:05-1,2-1,2 (21:00)4,3 (15:05)0,6 l/m²89%1024,30,0 km/h (0 Bft) SO17,7 km/h (3 Bft) W-SW (00:05)
Biberach (Riss), Boehringer533 m21:10-2,0-2,1 (21:10)5,5 (14:40)3,8 l/m²93%1024,10,0 km/h (0 Bft) N25,9 km/h (4 Bft) W (03:40)
Biberach (Riss), Realschule553 m21:05-2,2-2,2 (21:00)4,2 (14:35)0,0 l/m²90%1025,83,2 km/h (1 Bft) SO35,4 km/h (5 Bft) NW (03:45)
Burgrieden523 m21:05-1,4-1,4 (20:25)6,3 (13:50)0,2 l/m²82%1024,86,4 km/h (2 Bft) SO20,9 km/h (4 Bft) NW (03:55)
Burgrieden-Hochstetten510 m21:05-2,6-2,6 (20:45)5,2 (13:45)1,0 l/m²92%1025,04,8 km/h (1 Bft) SO25,7 km/h (4 Bft) NW (01:55)
Donauwörth411 m21:05-2,1-2,1 (21:05)5,2 (12:35)1,6 l/m²91%1025,90,0 km/h (0 Bft) SW32,4 km/h (5 Bft) W-NW (03:25)
Ebersbach579 m21:05-2,4-2,4 (20:55)4,2 (13:25)0,0 l/m²92%1025,40,0 km/h (0 Bft) O-NO27,4 km/h (4 Bft) NW (01:45)
Ebersbach-Boos605 m21:05-2,9-3,0 (20:50)3,4 (13:05)0,0 l/m²92%1025,10,0 km/h (0 Bft) S-SO24,1 km/h (4 Bft) NW (02:15)
Ebersbach-Menzenweiler661 m21:05-1,0-1,1 (20:35)3,1 (12:40)0,4 l/m²87%1025,216,1 km/h (3 Bft) O35,4 km/h (5 Bft) N-NW (02:20)
Ehingen535 m21:05-3,4-3,4 (21:05)5,5 (13:20)0,6 l/m²85%1024,32,4 km/h (1 Bft) S-SW17,5 km/h (3 Bft) S-SW (03:04)
Erlenmoos645 m21:05-1,7-1,7 (21:00)4,4 (12:15)1,4 l/m²89%1024,811,3 km/h (2 Bft) SO27,4 km/h (4 Bft) W (00:05)
Ertingen569 m21:05-2,1-2,1 (21:00)4,0 (13:45)0,3 l/m²89%1024,70,0 km/h (0 Bft) SO20,9 km/h (4 Bft) W (02:45)
Friedrichshafen405 m21:05-0,1-0,1 (20:55)7,3 (13:05)0,6 l/m²82%1024,94,8 km/h (1 Bft) NO35,4 km/h (5 Bft) W (00:15)
Günzburg443 m21:05-1,9-1,9 (21:05)4,7 (15:00)1,6 l/m²88%1022,70,0 km/h (0 Bft) SW30,6 km/h (5 Bft) W (02:00)
Hochdorf-Appendorf537 m21:05-4,4-4,8 (21:00)3,6 (00:00)0,0 l/m²78%1032,60,0 km/h (0 Bft) O-NO19,3 km/h (3 Bft) W (02:05)
Höchsten802 m21:05-1,7-1,7 (21:05)2,1 (14:45)0,0 l/m²82%1022,617,7 km/h (3 Bft) O-NO43,5 km/h (6 Bft) N-NW (03:35)
Horgenzell618 m21:05-2,1-2,1 (21:05)4,6 (14:20)0,2 l/m²86%1023,51,6 km/h (1 Bft) S33,8 km/h (5 Bft) NW (01:50)
Hoßkirch632 m21:05-2,9-3,1 (20:50)3,7 (12:55)0,0 l/m²91%1023,63,2 km/h (1 Bft) O-NO30,6 km/h (5 Bft) N-NW (02:30)
Isny, Am Dreifingerbach695 m21:05-3,7-3,7 (21:05)2,3 (00:15)3,2 l/m²92%1024,70,0 km/h (0 Bft) O-SO24,1 km/h (4 Bft) NW (03:55)
Isny, Weidachweg706 m21:05-3,7-3,8 (21:00)2,8 (14:25)3,0 l/m²88%1026,74,8 km/h (1 Bft) O-SO32,2 km/h (5 Bft) W (00:15)
Kappel-Grafenhausen163 m21:00-0,4-0,4 (20:50)7,9 (14:00)0,0 l/m²89%1023,20,0 km/h (0 Bft) N32,2 km/h (5 Bft) NW (22:45)
Kirchberg an der Iller584 m21:05-1,7-1,7 (20:55)3,8 (22:00)0,0 l/m²86%1015,40,0 km/h (0 Bft) N-NW13,8 km/h (3 Bft) SW (02:00)
Kißlegg-Staibshof709 m21:05-1,9-1,9 (21:05)3,0 (15:00)0,8 l/m²90%1025,10,0 km/h (0 Bft) O-SO30,6 km/h (5 Bft) NW (03:25)
Kressbronn398 m21:061,81,2 (10:14)5,1 (13:58)0,6 l/m²73%1024,019,3 km/h (3 Bft) O-SO41,8 km/h (6 Bft) O-SO (00:14)
Kreuzthal-Steinberg-Alpe930 m21:00-5,0-5,2 (20:50)1,7 (12:10)5,7 l/m²100%1026,02,9 km/h (1 Bft) O-SO24,1 km/h (4 Bft) W-NW (04:30)
Kreuzthal-Steinberggipfel1040 m21:00-4,5-4,7 (20:50)0,0 (00:20)-96%1026,04,0 km/h (1 Bft) SO34,6 km/h (5 Bft) N (04:40)
Kristberg im Montafon (AT)1425 m21:05-6,2-7,8 (18:10)-0,8 (12:50)5,0 l/m²83%1026,29,7 km/h (2 Bft) N19,3 km/h (3 Bft) O-NO (00:15)
Laupheim500 m21:05-1,9-2,1 (21:00)4,8 (13:25)0,4 l/m²88%1024,10,0 km/h (0 Bft) S-SO27,4 km/h (4 Bft) N-NW (03:10)
Leutkirch-Heggelbach670 m21:05-3,6-3,7 (21:05)2,7 (00:00)0,8 l/m²90%1024,20,0 km/h (0 Bft) SW24,1 km/h (4 Bft) SW (00:00)
Lindau-Insel420 m21:052,82,2 (19:45)5,7 (22:00)2,0 l/m²66%1024,319,3 km/h (3 Bft) S-SO37,0 km/h (5 Bft) W (22:00)
Lindau-Stadt412 m21:052,00,9 (18:50)5,3 (22:00)2,2 l/m²68%1024,714,5 km/h (3 Bft) O-SO29,0 km/h (5 Bft) SW (00:40)
Maierhöfen im Allgäu733 m21:05-4,4-4,4 (20:40)2,8 (13:35)5,2 l/m²93%1025,23,2 km/h (1 Bft) O25,7 km/h (4 Bft) W-NW (00:00)
Maselheim543 m21:05-2,6-2,7 (21:00)4,1 (14:00)0,2 l/m²90%1024,84,8 km/h (1 Bft) S-SO24,1 km/h (4 Bft) N-NW (03:15)
Maselheim-Sulmingen548 m21:05-2,8-2,8 (21:05)4,5 (13:40)0,4 l/m²91%1026,04,8 km/h (1 Bft) SO29,0 km/h (5 Bft) NW (03:40)
Mietingen-Baltringen528 m21:05-1,5-1,6 (20:55)4,3 (13:20)0,4 l/m²85%1026,63,2 km/h (1 Bft) S30,6 km/h (5 Bft) N (03:45)
Mindelheim-Apfeltrach620 m21:06-2,7-2,8 (21:06)3,1 (14:08)1,6 l/m²90%1025,03,2 km/h (1 Bft) S24,1 km/h (4 Bft) NW (02:53)
Mittelbiberach577 m21:05-2,9-3,1 (20:35)3,8 (22:00)0,0 l/m²90%1026,10,0 km/h (0 Bft) N24,1 km/h (4 Bft) NW (03:15)
Neresheim552 m21:00-3,3-3,3 (21:00)3,6 (15:00)0,0 l/m²95%1023,04,0 km/h (1 Bft) SO29,5 km/h (5 Bft) NW (05:00)
Neukirch570 m21:05-1,5-1,5 (21:05)4,2 (22:00)1,0 l/m²90%1025,18,0 km/h (2 Bft) O-NO46,7 km/h (6 Bft) W-SW (23:05)
Ochsenhausen, Birkenstraße613 m21:05-2,6-2,6 (21:05)3,6 (22:00)1,0 l/m²83%1025,30,0 km/h (0 Bft) O0,0 km/h (0 Bft) N (22:00)
Ochsenhausen, Unt. Wiesen575 m21:05-1,4-1,4 (18:55)3,8 (13:25)0,4 l/m²89%1026,21,6 km/h (1 Bft) S-SW27,4 km/h (4 Bft) W (00:10)
Ostrach619 m21:05-3,0-3,0 (21:05)5,2 (12:40)0,2 l/m²93%1023,31,6 km/h (1 Bft) W-SW25,7 km/h (4 Bft) NW (02:40)
Ravensburg, Goethestraße428 m21:15-0,4-0,4 (20:50)5,6 (13:15)0,2 l/m²88%1024,19,7 km/h (2 Bft) N-NO24,1 km/h (4 Bft) N (04:30)
Ravensburg, Springerstraße441 m21:05-0,3-0,3 (21:00)6,3 (12:55)0,7 l/m²78%1023,20,0 km/h (0 Bft) W9,7 km/h (2 Bft) O-SO (20:55)
Ravensburg-Wernsreute511 m21:05-2,1-2,3 (19:30)4,3 (22:20)0,4 l/m²88%1027,34,8 km/h (1 Bft) O-NO30,6 km/h (5 Bft) W-SW (23:30)
Reichenbach an der Fils343 m21:05-1,4-1,4 (21:00)6,5 (12:25)0,2 l/m²85%1026,91,6 km/h (1 Bft) NO29,0 km/h (5 Bft) N-NW (00:10)
Reinstetten559 m21:05-3,4-3,4 (21:05)4,2 (12:35)1,2 l/m²90%1025,43,2 km/h (1 Bft) S-SW24,1 km/h (4 Bft) W (00:00)
Riedlingen530 m21:05-2,2-2,2 (21:00)4,1 (14:35)0,0 l/m²91%1024,94,8 km/h (1 Bft) NO25,7 km/h (4 Bft) N-NO (02:25)
Rißtissen489 m21:05-1,3-1,3 (21:00)5,7 (14:00)0,6 l/m²87%1022,40,0 km/h (0 Bft) S-SW20,9 km/h (4 Bft) N (03:05)
Schemmerhofen520 m21:05-2,1-2,1 (21:05)4,7 (13:10)0,2 l/m²90%1024,31,6 km/h (1 Bft) SO20,9 km/h (4 Bft) W-NW (03:35)
Silbertal im Montafon (AT)884 m21:05-5,3-5,4 (20:50)1,2 (01:25)3,8 l/m²92%1026,40,0 km/h (0 Bft) NO11,3 km/h (2 Bft) NO (08:45)
Tettnang466 m21:050,90,2 (19:20)5,7 (13:15)0,6 l/m²72%1024,419,3 km/h (3 Bft) S33,8 km/h (5 Bft) W-SW (00:00)
Tuttlingen662 m21:03-3,1-3,3 (20:48)2,6 (11:43)0,1 l/m²79%1024,60,0 km/h (0 Bft) N-NO29,5 km/h (5 Bft) N-NO (01:23)
Tuttlingen, Möhringer-Vorstadt711 m21:05-3,1-3,1 (20:55)2,8 (12:20)1,8 l/m²93%1024,80,0 km/h (0 Bft) S27,4 km/h (4 Bft) N-NW (03:35)
Ummendorf547 m21:05-2,4-2,4 (20:50)3,6 (00:00)0,0 l/m²83%1026,06,4 km/h (2 Bft) O-SO24,1 km/h (4 Bft) W-SW (00:25)
Ummendorf-Fischbach558 m21:05-3,2-3,2 (20:45)3,5 (00:00)0,0 l/m²83%1025,70,0 km/h (0 Bft) SO20,9 km/h (4 Bft) NW (03:30)
Waldburg707 m21:05-2,1-2,1 (21:05)2,8 (13:25)0,8 l/m²89%1024,46,4 km/h (2 Bft) N17,7 km/h (3 Bft) N (00:35)
Waltenhofen im Allgäu720 m21:05-4,9-4,9 (21:05)1,9 (15:00)3,8 l/m²91%1025,06,4 km/h (2 Bft) W-SW20,9 km/h (4 Bft) W-SW (22:30)
Wangen, Hans-Schnitzer-Weg569 m21:05-1,4-1,4 (21:05)4,1 (00:00)2,6 l/m²75%1023,90,0 km/h (0 Bft) SO16,1 km/h (3 Bft) W (00:00)
Winterlingen785 m21:00-4,7-4,7 (21:00)1,9 (14:00)1,3 l/m²94%1024,30,0 km/h (0 Bft) N24,5 km/h (4 Bft) NW (03:40)

 

Blick über das Obere Schussenbecken und das mittlere und südliche Oberschwaben
Blickrichtung Süd


 
  • Aktuelle Aufnahme Kamera "Stadt"
  • Aktuelle Aufnahme Kamera "Alpenblick"
  •  
  • zurück zur Übersicht
  •  

     

     
     webcams
    | webcam bad schussenried
    | webcam kreuzthal-steinberggipfel
    | weitere webcams aus der region
    | storchennest-cam bad waldsee
     
     aktuelles
     
    wetterstationen
    wetterstationen
    - derzeit 78 Stationen
    wetterstationen
    wetterstationen
    - kartographische Darstellung
    niederschlagsdatenbank
    niederschlagsstationen
    - derzeit 110 Stationen
    niederschlagsdatenbank
    niederschlagsstationen
    - kartographische Darstellung
    webcams
    interessante webcams
    im Vorhersagegebiet
     
    Mo. 7.30 Uhr - Di. 7.30 Uhr (MEZ)
    1.Kreuzthal-Steinberg-Alpe
    Im Kreuzbachthal 85
    17,8 l/m²
    2.Albbruck
    Furmisstr. 18
    15,3 l/m²
    3.Wangen-Bergerhöhe
    Berg 2
    9,5 l/m²
    4.Tuttlingen-Möhringen
    Eßlinger Straße
    9,0 l/m²
    5.Münsingen-Rietheim
    In der Lise 20
    8,8 l/m²
    6.Schelklingen-Gundershofen
    Schwarzer-Straße 14
    8,5 l/m²
    7.Amstetten-Reutti
    Gassenäcker 13
    7,6 l/m²
    8.Dornstadt-Tomerdingen
    Maienweg 9
    6,9 l/m²
    9.Eislingen
    Albstraße 125
    6,7 l/m²
    10.Neresheim
    Alfred-Delp-Straße 8
    6,7 l/m²
    11.Leutkirch
    Nachtigallenweg 28
    6,5 l/m²
    12.Horgenzell-Ringgenweiler
    Ringgenweiler 620
    6,2 l/m²
    13.Ravensburg-Wernsreute
    Wernsreute 25
    6,0 l/m²
    14.Ravensburg-Weststadt
    Karl-Erb-Ring 142
    6,0 l/m²
    15.Leutkirch-Adrazhofen
    Bergstraße 20
    6,0 l/m²
    16.Bad Wurzach-Seibranz
    Kimpflerhof 2
    5,5 l/m²
    17.Inzigkofen
    Butzenweg 1
    5,3 l/m²
    18.Ravensburg-Schmalegg
    St.-Magdalena-Ring 42
    5,1 l/m²
    19.Ravensburg
    Bleicherstraße
    5,0 l/m²
    20.Vöhringen (Schwarzwald)
    Drosselweg 3
    5,0 l/m²
    21.Weingarten
    Marienstraße
    4,5 l/m²
    22.Pfullendorf
    Am Schweizersbild
    4,3 l/m²
    23.Weingarten
    Laurastraße
    4,0 l/m²
    24.Moosburg
    Käserweg 5
    4,0 l/m²
    25.Allmendingen
    Querqueviller Ring 6
    4,0 l/m²
    26.Ehingen
    Schlaufenbühl
    3,8 l/m²
    27.Riedhausen
    Blütenweg 13
    3,6 l/m²
    28.Illerkirchberg
    Mahdauweg 20
    3,5 l/m²
    29.Ostrach
    Uhlandweg
    3,5 l/m²
    30.Langenenslingen
    Schattenweiler Str. 18
    3,2 l/m²
    31.Kirchberg
    Rosenstr. 7
    3,0 l/m²
    32.Bad Saulgau
    Walserweg
    3,0 l/m²
    33.Langenau
    Wasserstr. 54-1
    3,0 l/m²
    34.Ehingen
    Rosenstraße
    3,0 l/m²
    35.Erlenmoos
    Haldenweg 15
    2,9 l/m²
    36.Ulm
    Eberhardtstraße 75
    2,8 l/m²
    37.Hüttisheim
    Ulmer Weg 2
    2,8 l/m²
    38.Öpfingen
    Hauptstraße 99
    2,8 l/m²
    39.Ehingen
    Schillerstraße
    2,8 l/m²
    40.Riedlingen
    Berliner Str. 41
    2,7 l/m²
    41.Bad Schussenried
    Lortzingstrasse
    2,5 l/m²
    42.Balzheim
    Hinterm Liess 19
    2,5 l/m²
    43.Herbertingen
    Drosselweg
    2,5 l/m²
    44.Bad Schussenried
    Theodor-Storm-Strasse
    2,5 l/m²
    45.Wolpertswende
    Aulendorfer Str. 17
    2,2 l/m²
    46.Bad Schussenried
    Klosterstraße
    2,0 l/m²
    47.Pfaffenhofen-Kadeltshofen
    Mühlbachstraße 4
    2,0 l/m²
    48.Ochsenhausen
    Ehrensberger Weg 5
    2,0 l/m²
    49.Gutenzell
    Kleinser Berg 1
    2,0 l/m²
    50.Bad Schussenried-Sattenbeuren
    Ortsstraße 7
    2,0 l/m²
    51.Dürnau
    Dorfäckerweg 5
    2,0 l/m²
    52.Warthausen
    Schwabenwiesen
    2,0 l/m²
    53.Aulendorf
    Steinenbacher Weg 33
    2,0 l/m²
    54.Bad Buchau
    Hanfweiher 1
    2,0 l/m²
    55.Bad Schussenried-Lufthütte
    Hauptgasse 17
    2,0 l/m²
    56.Riedlingen-Neufra
    Panoramaweg
    2,0 l/m²
    57.Bad Schussenried
    Konradstraße
    1,9 l/m²
    58.Warthausen-Barabein
    Barabein 20
    1,8 l/m²
    59.Mittelbiberach-Reute
    Rindenmooser Straße 2
    1,8 l/m²
    60.Eberhardzell
    Lilienweg
    1,6 l/m²
    61.Biberach
    Neue Heimat 5
    1,5 l/m²
    62.Warthausen
    An der Schloßhalde
    1,3 l/m²
    63.Hochdorf-Schweinhausen
    Lindenweg 2
    1,1 l/m²
    64.Biberach
    Mittelbergstraße 9
    1,0 l/m²
    65.Ummendorf
    Tulpenweg
    1,0 l/m²
    66.Biberach
    Amriswilstrasse
    0,8 l/m²
    67.Biberach
    Erlenweg
    0,8 l/m²
    68.Füramoos
    Hungersberg 1
    0,7 l/m²
    69.Biberach
    Strölinweg
    0,5 l/m²
     
    Di. 10.12.2019 - 7.30 Uhr (MEZ)
    1.Kreuzthal-Steinberg-Alpe
    Im Kreuzbachthal 85
    4 cm
    2.Ehingen
    Schillerstraße
    0 cm
    3.Ehingen
    Rosenstraße
    0 cm
    4.Amstetten-Reutti
    Gassenäcker 13
    angezuckert
    5.Ehingen
    Schlaufenbühl
    Reste
    6.Münsingen-Rietheim
    In der Lise 20
    Reste
     
      treffpunkt & service
    Pegel Konstanz www.bodensee.net
    zugriffe:
    insgesamt: 45.293.486
    aktueller monat: 100.428
    heute: 8.268
    momentan online: 50
     
     
    monatshöchstwert: 653.625
    vorheriger monat: 372.551
    gestern: 16.663
    tageshöchstwert: 51.297
     
    wetterwarte süd
     
    konradstraße 3
    info@wetterwarte-sued.com
    roland roth
     
    88427 bad schussenried